Time;durP1;ratioP1;P1;durP2;ratioP2;P2;SDS_P1;SDS_P2;PMS_P1;PMS_P2;Temp;Humidity;BMP_temperature;BMP_pressure;BME280_temperature;BME280_humidity;BME280_pressure;Samples;Min_cycle;Max_cycle;Signal;HPM_P1;HPM_P2
2021/11/13 00:01:15;;;;;;;0.32;0.20;;;20.40;68.30;;;;;;5071815;28;20031;-60
2021/11/13 00:03:43;;;;;;;0.65;0.13;;;20.40;68.10;;;;;;5071373;28;20020;-61
2021/11/13 00:06:10;;;;;;;0.22;0.10;;;20.40;67.40;;;;;;5072019;28;20024;-63
2021/11/13 00:08:37;;;;;;;1.40;0.03;;;20.50;66.60;;;;;;5072197;28;20078;-61
2021/11/13 00:11:06;;;;;;;1.10;0.10;;;20.50;67.50;;;;;;5076156;28;20017;-61
2021/11/13 00:13:33;;;;;;;0.90;0.20;;;20.60;67.40;;;;;;5075742;28;20391;-60
2021/11/13 00:16:01;;;;;;;0.00;0.00;;;20.60;67.20;;;;;;5075760;28;20032;-60
2021/11/13 00:18:28;;;;;;;0.13;0.10;;;20.60;68.50;;;;;;5075006;28;20040;-60
2021/11/13 00:20:55;;;;;;;0.35;0.10;;;20.70;68.10;;;;;;5075646;28;20024;-60
2021/11/13 00:23:23;;;;;;;0.10;0.10;;;20.60;68.00;;;;;;5075352;28;20437;-61
2021/11/13 00:25:50;;;;;;;0.47;0.20;;;20.70;67.50;;;;;;5075805;28;20517;-60
2021/11/13 00:28:17;;;;;;;0.63;0.40;;;20.70;67.30;;;;;;5075488;28;20048;-60
2021/11/13 00:30:45;;;;;;;0.30;0.20;;;20.80;67.00;;;;;;5075651;28;20494;-61
2021/11/13 00:33:12;;;;;;;0.45;0.20;;;20.80;66.30;;;;;;5074577;28;20461;-62
2021/11/13 00:35:40;;;;;;;0.38;0.20;;;20.90;65.20;;;;;;5074696;28;20056;-62
2021/11/13 00:38:08;;;;;;;0.38;0.20;;;20.90;64.40;;;;;;5075343;28;20466;-63
2021/11/13 00:40:35;;;;;;;0.30;0.10;;;20.90;64.80;;;;;;5074737;28;20017;-61
2021/11/13 00:43:03;;;;;;;0.10;0.10;;;21.00;65.60;;;;;;5075263;28;20045;-61
2021/11/13 00:45:31;;;;;;;0.17;0.10;;;21.00;64.70;;;;;;5074966;28;20021;-60
2021/11/13 00:47:58;;;;;;;0.63;0.10;;;21.00;63.70;;;;;;5075256;28;20025;-60
2021/11/13 00:50:26;;;;;;;0.65;0.10;;;21.00;63.70;;;;;;5075084;28;20082;-62
2021/11/13 00:52:53;;;;;;;0.65;0.10;;;21.00;64.40;;;;;;5074558;28;20068;-61
2021/11/13 00:55:21;;;;;;;0.20;0.10;;;21.00;65.30;;;;;;5074824;28;20033;-61
2021/11/13 00:57:48;;;;;;;1.13;0.20;;;21.00;65.20;;;;;;5074837;28;20024;-59
2021/11/13 01:00:19;;;;;;;0.10;0.10;;;21.00;66.00;;;;;;5073786;28;20032;-61
2021/11/13 01:02:47;;;;;;;0.40;0.20;;;21.00;65.10;;;;;;5075042;28;20033;-61
2021/11/13 01:05:15;;;;;;;0.95;0.22;;;21.00;65.30;;;;;;5074593;28;20183;-61
2021/11/13 01:07:43;;;;;;;0.38;0.25;;;20.90;66.10;;;;;;5075206;28;20028;-61
2021/11/13 01:10:13;;;;;;;0.70;0.20;;;21.00;65.20;;;;;;5075111;28;20468;-61
2021/11/13 01:12:41;;;;;;;2.20;0.10;;;20.90;65.10;;;;;;5074103;28;20047;-62
2021/11/13 01:15:10;;;;;;;3.25;0.20;;;20.90;66.20;;;;;;5074800;28;20051;-62
2021/11/13 01:17:37;;;;;;;0.17;0.10;;;20.90;65.70;;;;;;5074217;28;20025;-60
2021/11/13 01:20:08;;;;;;;0.75;0.10;;;20.90;64.60;;;;;;5073303;28;20021;-60
2021/11/13 01:22:36;;;;;;;0.22;0.13;;;21.00;64.30;;;;;;5073909;28;20032;-62
2021/11/13 01:25:04;;;;;;;0.22;0.15;;;20.90;64.90;;;;;;5074372;28;20479;-60
2021/11/13 01:27:31;;;;;;;0.32;0.13;;;20.90;64.50;;;;;;5074488;28;20020;-62
2021/11/13 01:29:59;;;;;;;0.00;0.00;;;20.90;64.20;;;;;;5072666;28;20207;-60
2021/11/13 01:32:27;;;;;;;0.43;0.43;;;20.90;65.30;;;;;;5066856;28;20044;-60
2021/11/13 01:34:54;;;;;;;0.20;0.10;;;20.90;65.00;;;;;;5071420;28;20075;-59
2021/11/13 01:37:21;;;;;;;1.08;0.50;;;20.90;66.10;;;;;;5071979;28;20463;-61
2021/11/13 01:39:49;;;;;;;1.95;1.17;;;21.00;65.80;;;;;;5070260;28;20028;-64
2021/11/13 01:42:16;;;;;;;2.70;1.00;;;21.00;65.00;;;;;;5071327;28;20013;-60
2021/11/13 01:44:44;;;;;;;1.02;0.90;;;21.00;64.30;;;;;;5070684;28;20511;-59
2021/11/13 01:47:11;;;;;;;1.00;0.90;;;21.00;64.30;;;;;;5071435;28;20029;-60
2021/11/13 01:49:38;;;;;;;1.42;1.08;;;21.00;64.10;;;;;;5068896;28;20036;-59
2021/11/13 01:52:11;;;;;;;1.45;1.23;;;21.10;64.30;;;;;;5070092;28;20509;-61
2021/11/13 01:54:40;;;;;;;2.08;0.80;;;21.10;62.80;;;;;;5069752;28;20105;-60
2021/11/13 01:57:20;;;;;;;1.45;0.80;;;21.10;63.80;;;;;;5071350;28;20098;-59
2021/11/13 01:59:50;;;;;;;1.63;1.13;;;21.20;63.20;;;;;;5067404;28;20028;-57
2021/11/13 02:02:19;;;;;;;1.25;0.80;;;21.20;62.80;;;;;;5071717;28;20479;-60
2021/11/13 02:04:46;;;;;;;0.80;0.70;;;21.20;63.40;;;;;;5071571;28;20494;-60
2021/11/13 02:07:14;;;;;;;1.83;1.13;;;21.30;62.10;;;;;;5071032;28;20050;-58
2021/11/13 02:09:41;;;;;;;1.13;0.82;;;21.30;61.30;;;;;;5067280;28;20396;-58
2021/11/13 02:12:09;;;;;;;3.10;0.75;;;21.40;63.20;;;;;;5071372;28;20379;-54
2021/11/13 02:14:36;;;;;;;2.03;0.88;;;21.40;62.00;;;;;;5069326;28;20462;-60
2021/11/13 02:17:04;;;;;;;1.33;0.82;;;21.40;62.70;;;;;;5071023;28;20491;-55
2021/11/13 02:19:31;;;;;;;0.63;0.60;;;21.40;62.30;;;;;;5067474;28;20034;-58
2021/11/13 02:22:00;;;;;;;1.02;0.68;;;21.50;62.80;;;;;;5068626;28;20020;-59
2021/11/13 02:24:28;;;;;;;1.23;0.63;;;21.50;62.20;;;;;;5069824;28;20032;-60
2021/11/13 02:26:55;;;;;;;1.15;0.63;;;21.50;62.60;;;;;;5071055;28;20057;-61
2021/11/13 02:29:23;;;;;;;0.70;0.40;;;21.60;61.10;;;;;;5069453;28;20095;-59
2021/11/13 02:31:51;;;;;;;0.63;0.50;;;21.60;62.00;;;;;;5069277;28;20120;-56
2021/11/13 02:34:18;;;;;;;3.60;0.57;;;21.60;61.30;;;;;;5070826;28;20394;-54
2021/11/13 02:36:46;;;;;;;0.77;0.47;;;21.60;61.60;;;;;;5071398;28;20540;-63
2021/11/13 02:39:14;;;;;;;1.08;0.77;;;21.60;61.60;;;;;;5069682;28;20039;-59
2021/11/13 02:41:47;;;;;;;1.33;0.80;;;21.70;61.40;;;;;;5067598;28;20375;-57
2021/11/13 02:44:16;;;;;;;1.48;0.80;;;21.70;61.90;;;;;;5071667;28;20032;-52
2021/11/13 02:46:45;;;;;;;5.68;0.65;;;21.70;62.00;;;;;;5070202;28;20028;-59
2021/11/13 02:49:14;;;;;;;0.75;0.63;;;21.70;62.20;;;;;;5069017;28;20024;-59
2021/11/13 02:51:45;;;;;;;0.73;0.60;;;21.60;61.90;;;;;;5067576;28;20340;-53
2021/11/13 02:54:12;;;;;;;1.48;0.70;;;21.70;61.50;;;;;;5071097;28;20149;-60
2021/11/13 02:56:40;;;;;;;1.73;0.80;;;21.60;62.90;;;;;;5071707;28;20093;-59
2021/11/13 02:59:07;;;;;;;1.33;0.60;;;21.60;62.60;;;;;;5072843;28;20035;-59
2021/11/13 03:01:35;;;;;;;0.95;0.50;;;21.60;63.70;;;;;;5071515;28;20020;-56
2021/11/13 03:04:02;;;;;;;0.40;0.40;;;21.60;61.30;;;;;;5072837;28;20025;-57
2021/11/13 03:06:29;;;;;;;1.40;0.80;;;21.60;62.80;;;;;;5072317;28;20125;-58
2021/11/13 03:08:57;;;;;;;0.63;0.50;;;21.50;62.80;;;;;;5072565;28;20039;-57
2021/11/13 03:11:24;;;;;;;0.57;0.50;;;21.50;61.70;;;;;;5072715;28;20103;-58
2021/11/13 03:13:53;;;;;;;2.75;0.52;;;21.60;62.70;;;;;;5072286;28;20059;-59
2021/11/13 03:16:21;;;;;;;0.50;0.45;;;21.60;62.70;;;;;;5072546;28;20031;-59
2021/11/13 03:18:49;;;;;;;0.73;0.32;;;21.60;62.80;;;;;;5054797;28;20552;-57
2021/11/13 03:21:17;;;;;;;0.77;0.60;;;21.60;61.10;;;;;;5072295;28;20379;-58
2021/11/13 03:23:46;;;;;;;0.95;0.35;;;21.60;62.20;;;;;;5071779;28;20059;-60
2021/11/13 03:26:23;;;;;;;0.38;0.38;;;21.60;62.50;;;;;;5072377;28;20025;-56
2021/11/13 03:29:06;;;;;;;0.43;0.30;;;21.60;61.50;;;;;;5072437;28;20090;-60
2021/11/13 03:31:34;;;;;;;0.75;0.20;;;21.60;62.20;;;;;;5072116;28;20027;-60
2021/11/13 03:34:01;;;;;;;3.13;0.47;;;21.60;61.80;;;;;;5072418;28;20483;-57
2021/11/13 03:36:29;;;;;;;0.93;0.65;;;21.60;61.90;;;;;;5061959;28;20115;-58
2021/11/13 03:38:56;;;;;;;0.75;0.30;;;21.60;61.50;;;;;;5069543;28;20413;-55
2021/11/13 03:41:24;;;;;;;1.23;0.38;;;21.60;61.60;;;;;;5068738;28;20024;-51
2021/11/13 03:43:59;;;;;;;0.63;0.50;;;21.60;61.90;;;;;;5067720;28;20538;-53
2021/11/13 03:46:27;;;;;;;0.88;0.60;;;21.70;61.50;;;;;;5100125;28;20052;-60
2021/11/13 03:48:54;;;;;;;2.88;1.63;;;21.70;60.40;;;;;;5068801;28;20017;-58
2021/11/13 03:51:25;;;;;;;3.05;1.65;;;21.70;60.90;;;;;;5067422;28;20032;-55
2021/11/13 03:53:56;;;;;;;1.45;1.35;;;21.70;60.70;;;;;;5069572;28;20124;-58
2021/11/13 03:56:23;;;;;;;2.33;1.40;;;21.70;60.90;;;;;;5068065;28;20028;-55
2021/11/13 03:58:51;;;;;;;12.38;2.50;;;21.70;60.30;;;;;;5069212;28;20089;-52
2021/11/13 04:01:18;;;;;;;2.03;1.83;;;21.70;60.50;;;;;;5065961;28;20090;-57
2021/11/13 04:03:46;;;;;;;1.63;1.50;;;21.70;60.20;;;;;;5069248;28;20028;-54
2021/11/13 04:06:13;;;;;;;1.70;1.60;;;21.80;60.10;;;;;;5069440;28;20104;-55
2021/11/13 04:08:41;;;;;;;8.48;5.00;;;21.80;60.10;;;;;;5067436;28;20058;-56
2021/11/13 04:11:08;;;;;;;3.95;2.00;;;21.80;60.50;;;;;;5061177;28;20090;-57
2021/11/13 04:13:35;;;;;;;2.50;1.90;;;21.70;59.50;;;;;;5068905;28;20140;-61
2021/11/13 04:16:03;;;;;;;2.28;1.95;;;21.70;59.60;;;;;;5069113;28;20032;-57
2021/11/13 04:18:30;;;;;;;1.63;1.52;;;21.70;59.50;;;;;;5068149;28;20032;-56
2021/11/13 04:20:57;;;;;;;3.40;1.88;;;21.70;59.40;;;;;;5064913;28;20100;-59
2021/11/13 04:23:25;;;;;;;2.88;1.90;;;21.70;58.70;;;;;;5069054;28;20025;-59
2021/11/13 04:25:56;;;;;;;1.88;1.67;;;21.70;59.30;;;;;;5069361;28;20060;-59
2021/11/13 04:28:23;;;;;;;3.58;2.08;;;21.70;59.10;;;;;;5067409;28;20358;-57
2021/11/13 04:30:51;;;;;;;5.25;1.58;;;21.70;59.40;;;;;;5063822;28;20017;-61
2021/11/13 04:33:18;;;;;;;1.85;1.30;;;21.70;59.10;;;;;;5069200;28;20037;-56
2021/11/13 04:36:32;;;;;;;2.22;1.10;;;21.70;59.30;;;;;;5068411;28;20487;-58
2021/11/13 04:38:37;;;;;;;1.27;1.00;;;21.70;58.90;;;;;;5067953;28;20064;-57
2021/11/13 04:41:07;;;;;;;1.58;0.77;;;21.70;58.30;;;;;;5061923;28;20024;-55
2021/11/13 04:43:34;;;;;;;4.72;0.70;;;21.80;56.60;;;;;;5068406;28;20025;-56
2021/11/13 04:46:02;;;;;;;11.70;1.60;;;21.90;55.60;;;;;;5070543;28;20020;-57
2021/11/13 04:48:29;;;;;;;6.57;1.10;;;21.90;56.50;;;;;;5069098;28;20433;-57
2021/11/13 04:50:57;;;;;;;2.40;1.05;;;21.90;56.30;;;;;;5067319;28;20103;-54
2021/11/13 04:53:26;;;;;;;1.67;0.60;;;21.80;57.00;;;;;;5070973;28;20067;-55
2021/11/13 04:55:54;;;;;;;5.13;0.80;;;21.80;55.50;;;;;;5071875;28;20103;-55
2021/11/13 04:58:22;;;;;;;3.35;0.75;;;21.90;56.90;;;;;;5074517;28;20021;-54
2021/11/13 05:00:49;;;;;;;11.07;0.95;;;21.90;56.40;;;;;;5075415;28;20025;-52
2021/11/13 05:03:16;;;;;;;18.58;2.63;;;21.90;56.70;;;;;;5074907;28;20435;-56
2021/11/13 05:05:44;;;;;;;4.00;0.60;;;22.00;57.70;;;;;;5074514;28;20383;-54
2021/11/13 05:08:11;;;;;;;7.53;0.70;;;21.90;57.10;;;;;;5073510;28;20047;-54
2021/11/13 05:10:38;;;;;;;6.30;0.68;;;22.00;57.70;;;;;;5072430;28;20025;-56
2021/11/13 05:13:06;;;;;;;3.50;0.68;;;22.00;58.40;;;;;;5074579;28;20051;-56
2021/11/13 05:15:33;;;;;;;6.20;0.70;;;22.00;58.20;;;;;;5075022;28;20063;-55
2021/11/13 05:18:01;;;;;;;3.58;0.47;;;22.10;56.80;;;;;;5074319;28;20017;-59
2021/11/13 05:20:28;;;;;;;11.00;0.60;;;22.00;58.40;;;;;;5074652;28;20033;-56
2021/11/13 05:22:55;;;;;;;2.50;0.60;;;22.10;59.20;;;;;;5073487;28;20020;-58
2021/11/13 05:25:24;;;;;;;2.13;0.50;;;22.10;58.90;;;;;;5075144;28;20365;-56
2021/11/13 05:27:51;;;;;;;4.10;1.13;;;22.10;57.90;;;;;;5074506;28;20024;-56
2021/11/13 05:30:20;;;;;;;2.20;0.47;;;22.20;58.80;;;;;;5074734;28;20108;-55
2021/11/13 05:32:49;;;;;;;2.22;0.30;;;22.10;57.60;;;;;;5074159;28;20063;-58
2021/11/13 05:35:17;;;;;;;0.73;0.30;;;22.20;58.50;;;;;;5074357;28;20033;-56
2021/11/13 05:37:45;;;;;;;6.00;0.52;;;22.20;58.50;;;;;;5074290;28;20020;-53
2021/11/13 05:40:13;;;;;;;10.52;0.40;;;22.20;57.30;;;;;;5074305;28;20025;-57
2021/11/13 05:42:42;;;;;;;14.35;0.70;;;22.20;56.60;;;;;;5073967;28;20024;-57
2021/11/13 05:45:12;;;;;;;7.85;0.88;;;22.20;57.30;;;;;;5074320;28;20055;-54
2021/11/13 05:47:41;;;;;;;9.07;0.70;;;22.20;57.10;;;;;;5074745;28;20025;-59
2021/11/13 05:50:12;;;;;;;2.28;0.28;;;22.20;58.60;;;;;;5074120;28;20028;-63
2021/11/13 05:52:42;;;;;;;26.08;1.00;;;22.20;56.70;;;;;;5073794;28;20068;-52
2021/11/13 05:55:11;;;;;;;6.53;0.38;;;22.30;58.40;;;;;;5074102;28;20021;-55
2021/11/13 05:57:38;;;;;;;3.20;0.30;;;22.30;57.20;;;;;;5074362;28;20050;-57
2021/11/13 06:00:07;;;;;;;6.30;0.40;;;22.20;56.00;;;;;;5074065;28;20115;-53
2021/11/13 06:02:35;;;;;;;5.50;0.32;;;22.20;57.10;;;;;;5074476;28;20021;-51
2021/11/13 06:05:03;;;;;;;6.00;0.40;;;22.20;58.10;;;;;;5074519;28;20376;-53
2021/11/13 06:07:30;;;;;;;3.75;0.50;;;22.20;58.00;;;;;;5073594;28;20107;-55
2021/11/13 06:09:57;;;;;;;1.67;0.70;;;22.20;57.80;;;;;;5073538;28;20029;-55
2021/11/13 06:12:25;;;;;;;5.15;0.43;;;22.20;58.80;;;;;;5073504;28;20024;-55
2021/11/13 06:14:52;;;;;;;9.25;0.60;;;22.20;58.80;;;;;;5073646;28;20077;-58
2021/11/13 06:17:20;;;;;;;11.80;0.50;;;22.20;58.70;;;;;;5074040;28;20164;-56
2021/11/13 06:19:47;;;;;;;2.10;0.50;;;22.30;58.90;;;;;;5073652;28;20031;-55
2021/11/13 06:22:15;;;;;;;13.23;0.45;;;22.20;58.50;;;;;;5073859;28;20028;-52
2021/11/13 06:24:42;;;;;;;2.28;0.43;;;22.30;58.80;;;;;;5073368;28;20089;-55
2021/11/13 06:27:10;;;;;;;9.07;0.63;;;22.20;57.50;;;;;;5073630;28;20471;-51
2021/11/13 06:29:37;;;;;;;4.57;0.43;;;22.20;59.30;;;;;;5073345;28;20032;-54
2021/11/13 06:32:05;;;;;;;3.05;0.50;;;22.20;58.00;;;;;;5073525;28;20028;-52
2021/11/13 06:34:32;;;;;;;29.23;1.08;;;22.20;58.00;;;;;;5073048;28;20052;-55
2021/11/13 06:37:00;;;;;;;3.88;0.40;;;22.20;58.40;;;;;;5073326;28;20403;-55
2021/11/13 06:39:27;;;;;;;3.17;0.50;;;22.20;58.40;;;;;;5073035;28;20470;-54
2021/11/13 06:41:55;;;;;;;5.78;0.73;;;22.20;58.10;;;;;;5071971;28;20066;-53
2021/11/13 06:44:22;;;;;;;12.98;1.27;;;22.20;59.00;;;;;;5072695;28;20028;-55
2021/11/13 06:46:50;;;;;;;3.72;0.55;;;22.20;58.40;;;;;;5072915;28;20031;-53
2021/11/13 06:49:17;;;;;;;3.17;0.80;;;22.20;58.10;;;;;;5073008;28;20029;-54
2021/11/13 06:51:45;;;;;;;8.50;0.85;;;22.20;58.10;;;;;;5073044;28;20044;-53
2021/11/13 06:54:13;;;;;;;9.63;0.90;;;22.20;58.20;;;;;;5071760;28;20470;-55
2021/11/13 06:56:41;;;;;;;8.05;1.88;;;22.20;57.60;;;;;;5072545;28;20035;-54
2021/11/13 06:59:09;;;;;;;1.13;0.40;;;22.20;59.50;;;;;;5072064;28;20028;-56
2021/11/13 07:01:37;;;;;;;7.45;0.82;;;22.30;59.10;;;;;;5072386;28;20028;-53
2021/11/13 07:04:04;;;;;;;5.60;0.52;;;22.30;61.10;;;;;;5071457;28;20055;-53
2021/11/13 07:06:31;;;;;;;3.05;0.60;;;22.30;60.60;;;;;;5072790;28;20025;-56
2021/11/13 07:09:00;;;;;;;11.30;1.13;;;22.20;57.60;;;;;;5072582;28;20035;-55
2021/11/13 07:11:28;;;;;;;13.30;0.75;;;22.20;59.50;;;;;;5072412;28;20103;-57
2021/11/13 07:13:56;;;;;;;2.75;0.50;;;22.20;59.60;;;;;;5072697;28;20048;-58
2021/11/13 07:16:23;;;;;;;1.83;0.45;;;22.20;59.60;;;;;;5072576;28;20028;-57
2021/11/13 07:18:50;;;;;;;1.55;0.50;;;22.10;59.50;;;;;;5072039;28;20028;-57
2021/11/13 07:21:18;;;;;;;4.15;1.05;;;22.10;59.60;;;;;;5072701;28;20025;-59
2021/11/13 07:23:45;;;;;;;2.20;0.75;;;22.10;60.10;;;;;;5072541;28;20037;-57
2021/11/13 07:26:14;;;;;;;0.77;0.35;;;22.10;60.40;;;;;;5072478;28;20108;-57
2021/11/13 07:28:44;;;;;;;0.98;0.38;;;22.00;59.90;;;;;;5072434;28;20043;-57
2021/11/13 07:31:16;;;;;;;0.75;0.40;;;22.00;60.40;;;;;;5073037;28;20379;-59
2021/11/13 07:33:46;;;;;;;3.55;0.38;;;21.90;60.90;;;;;;5072549;28;20090;-59
2021/11/13 07:36:14;;;;;;;3.65;0.43;;;21.90;60.70;;;;;;5072419;28;20498;-56
2021/11/13 07:38:41;;;;;;;0.95;0.40;;;21.90;61.20;;;;;;5070254;28;20366;-60
2021/11/13 07:41:10;;;;;;;4.10;0.45;;;21.90;61.40;;;;;;5072409;28;20040;-59
2021/11/13 07:43:38;;;;;;;2.58;0.30;;;21.80;61.50;;;;;;5069230;28;20055;-58
2021/11/13 07:46:06;;;;;;;3.65;0.70;;;21.80;61.70;;;;;;5072353;28;20024;-60
2021/11/13 07:48:33;;;;;;;3.47;0.50;;;21.80;61.90;;;;;;5071767;28;20036;-56
2021/11/13 07:51:01;;;;;;;7.47;0.57;;;21.80;62.10;;;;;;5072524;28;20086;-55
2021/11/13 07:53:28;;;;;;;3.97;0.52;;;21.70;62.10;;;;;;5072078;28;20415;-60
2021/11/13 07:55:56;;;;;;;0.50;0.30;;;21.70;62.40;;;;;;5072585;28;20020;-61
2021/11/13 07:58:24;;;;;;;3.63;0.30;;;21.70;62.60;;;;;;5071738;28;20092;-62
2021/11/13 08:00:51;;;;;;;3.42;0.65;;;21.60;62.60;;;;;;5071820;28;20020;-59
2021/11/13 08:03:19;;;;;;;4.32;0.60;;;21.60;62.60;;;;;;5072428;28;20029;-63
2021/11/13 08:05:47;;;;;;;1.67;0.40;;;21.60;62.70;;;;;;5072626;28;20040;-57
2021/11/13 08:08:15;;;;;;;2.67;0.52;;;21.60;63.10;;;;;;5063519;28;20430;-57
2021/11/13 08:10:43;;;;;;;0.60;0.30;;;21.50;63.70;;;;;;5069122;28;20466;-57
2021/11/13 08:13:16;;;;;;;0.93;0.40;;;21.50;63.50;;;;;;5068429;28;20067;-57
2021/11/13 08:15:44;;;;;;;1.92;0.52;;;21.60;63.50;;;;;;5069783;28;20479;-56
2021/11/13 08:18:12;;;;;;;1.63;0.40;;;21.50;63.50;;;;;;5069096;28;20055;-54
2021/11/13 08:20:41;;;;;;;2.05;0.80;;;21.50;63.10;;;;;;5069612;28;20067;-55
2021/11/13 08:23:09;;;;;;;6.82;0.90;;;21.50;63.40;;;;;;5063352;28;20255;-57
2021/11/13 08:25:39;;;;;;;2.90;0.60;;;21.60;64.10;;;;;;5070258;28;20064;-57
2021/11/13 08:28:08;;;;;;;1.58;0.70;;;21.50;64.30;;;;;;5068063;28;20065;-55
2021/11/13 08:30:36;;;;;;;5.85;1.13;;;21.50;63.90;;;;;;5072004;28;20028;-57
2021/11/13 08:33:07;;;;;;;3.50;1.10;;;21.50;64.00;;;;;;5069888;28;20094;-57
2021/11/13 08:35:39;;;;;;;3.35;0.70;;;21.50;64.10;;;;;;5072741;28;20036;-60
2021/11/13 08:38:06;;;;;;;;;;;21.50;64.80;;;;;;5073718;28;20092;-56
2021/11/13 08:40:34;;;;;;;2.25;0.60;;;21.50;64.60;;;;;;5073171;28;19904;-55
2021/11/13 08:43:02;;;;;;;0.98;0.80;;;21.40;64.80;;;;;;5066049;28;20021;-58
2021/11/13 08:45:30;;;;;;;1.70;0.70;;;21.40;65.00;;;;;;5073411;28;20364;-57
2021/11/13 08:47:58;;;;;;;4.35;0.70;;;21.40;65.20;;;;;;5070866;28;20028;-54
2021/11/13 08:50:27;;;;;;;1.00;0.68;;;21.40;65.40;;;;;;5069815;28;20032;-54
2021/11/13 08:52:58;;;;;;;2.05;0.75;;;21.40;65.30;;;;;;5066689;28;20609;-54
2021/11/13 08:55:28;;;;;;;1.58;0.60;;;21.40;65.40;;;;;;5072899;28;20491;-53
2021/11/13 08:57:57;;;;;;;3.00;0.63;;;21.40;65.70;;;;;;5070456;28;20112;-54
2021/11/13 09:00:47;;;;;;;0.88;0.65;;;21.40;65.80;;;;;;5070191;28;20139;-54
2021/11/13 09:03:25;;;;;;;1.85;0.57;;;21.30;66.50;;;;;;5068873;28;20027;-52
2021/11/13 09:05:54;;;;;;;3.13;0.88;;;21.30;66.10;;;;;;5071101;28;20029;-55
2021/11/13 09:08:23;;;;;;;0.68;0.50;;;21.30;66.30;;;;;;5070320;28;20430;-50
2021/11/13 09:10:52;;;;;;;1.58;0.65;;;21.30;66.50;;;;;;5070540;28;20441;-58
2021/11/13 09:13:23;;;;;;;1.13;0.65;;;21.20;66.50;;;;;;5068437;28;20028;-53
2021/11/13 09:15:51;;;;;;;0.73;0.53;;;21.20;66.60;;;;;;5067903;28;20029;-56
2021/11/13 09:18:18;;;;;;;0.80;0.70;;;21.20;66.60;;;;;;5073028;28;20434;-54
2021/11/13 09:20:45;;;;;;;1.67;0.70;;;21.20;66.90;;;;;;5071652;28;20197;-50
2021/11/13 09:23:14;;;;;;;0.95;0.60;;;21.20;66.90;;;;;;5067864;28;20103;-52
2021/11/13 09:25:43;;;;;;;0.70;0.47;;;21.10;66.90;;;;;;5072610;28;20148;-54
2021/11/13 09:28:11;;;;;;;1.00;0.75;;;21.10;66.90;;;;;;5071960;28;20043;-60
2021/11/13 09:30:40;;;;;;;0.68;0.57;;;21.10;67.10;;;;;;5072372;28;20024;-57
2021/11/13 09:33:08;;;;;;;4.20;0.65;;;21.10;67.10;;;;;;5069660;28;20461;-54
2021/11/13 09:35:37;;;;;;;1.05;0.52;;;21.10;67.20;;;;;;5070252;28;20031;-58
2021/11/13 09:38:04;;;;;;;2.10;0.65;;;21.00;67.10;;;;;;5070857;28;20055;-54
2021/11/13 09:40:32;;;;;;;0.68;0.57;;;21.00;67.20;;;;;;5072038;28;20033;-54
2021/11/13 09:43:03;;;;;;;2.78;0.60;;;21.00;67.30;;;;;;5066597;28;20036;-54
2021/11/13 09:45:31;;;;;;;1.25;0.60;;;21.00;67.20;;;;;;5071883;28;20017;-54
2021/11/13 09:47:59;;;;;;;1.13;0.50;;;21.00;67.20;;;;;;5072658;28;20029;-49
2021/11/13 09:50:32;;;;;;;0.93;0.85;;;20.90;67.40;;;;;;5068705;28;20025;-50
2021/11/13 09:53:00;;;;;;;2.03;0.95;;;20.90;67.60;;;;;;5066740;28;20483;-51
2021/11/13 09:55:28;;;;;;;0.88;0.60;;;20.90;67.80;;;;;;5066620;28;20371;-54
2021/11/13 09:57:56;;;;;;;0.80;0.43;;;20.90;67.90;;;;;;5071766;28;20026;-57
2021/11/13 10:00:28;;;;;;;1.67;0.60;;;20.90;67.80;;;;;;5070926;28;20321;-52
2021/11/13 10:02:57;;;;;;;1.08;0.63;;;20.80;68.00;;;;;;5068930;28;20063;-51
2021/11/13 10:05:24;;;;;;;1.73;0.90;;;20.80;68.00;;;;;;5071875;28;20056;-62
2021/11/13 10:07:52;;;;;;;0.93;0.50;;;20.80;68.10;;;;;;5070746;28;20532;-58
2021/11/13 10:10:33;;;;;;;1.45;0.38;;;20.80;68.10;;;;;;5072148;28;20024;-60
2021/11/13 10:13:02;;;;;;;1.45;0.70;;;20.80;68.10;;;;;;5067674;28;20028;-58
2021/11/13 10:15:38;;;;;;;1.48;0.70;;;20.80;68.20;;;;;;5071052;28;20112;-56
2021/11/13 10:18:07;;;;;;;0.55;0.40;;;20.80;68.30;;;;;;5067461;28;20032;-58
2021/11/13 10:20:41;;;;;;;0.70;0.52;;;20.80;68.30;;;;;;5069216;28;20071;-57
2021/11/13 10:23:09;;;;;;;1.20;0.57;;;20.70;68.30;;;;;;5063355;28;20530;-59
2021/11/13 10:25:37;;;;;;;1.13;0.70;;;20.70;68.30;;;;;;5071350;28;20043;-54
2021/11/13 10:28:13;;;;;;;0.80;0.47;;;20.70;68.40;;;;;;5071526;28;20031;-58
2021/11/13 10:30:42;;;;;;;0.52;0.35;;;20.70;68.20;;;;;;5067663;28;20485;-55
2021/11/13 10:33:10;;;;;;;0.40;0.30;;;20.70;68.20;;;;;;5062929;28;20185;-51
2021/11/13 10:35:46;;;;;;;0.73;0.40;;;20.60;68.10;;;;;;5070841;28;20024;-57
2021/11/13 10:38:16;;;;;;;1.63;0.70;;;20.70;68.20;;;;;;5067047;28;20031;-56
2021/11/13 10:41:04;;;;;;;2.78;0.50;;;20.60;68.30;;;;;;5066867;28;20031;-60
2021/11/13 10:43:38;;;;;;;3.10;0.73;;;20.60;68.40;;;;;;5054897;28;20040;-57
2021/11/13 10:46:20;;;;;;;0.63;0.50;;;20.60;68.40;;;;;;5053338;28;20020;-56
2021/11/13 10:48:59;;;;;;;1.23;0.75;;;20.60;68.30;;;;;;5053470;28;20036;-55
2021/11/13 10:51:33;;;;;;;0.52;0.50;;;20.60;68.30;;;;;;5053150;28;20041;-55
2021/11/13 10:54:15;;;;;;;1.70;0.40;;;20.60;68.40;;;;;;5052549;28;20060;-56
2021/11/13 10:56:48;;;;;;;1.10;0.50;;;20.60;68.50;;;;;;5052697;28;20033;-55
2021/11/13 10:59:16;;;;;;;0.60;0.35;;;20.50;68.50;;;;;;5053338;28;20484;-56
2021/11/13 11:01:48;;;;;;;0.57;0.43;;;20.50;68.60;;;;;;5053404;28;20028;-53
2021/11/13 11:04:18;;;;;;;0.98;0.60;;;20.50;68.60;;;;;;5053068;28;20499;-57
2021/11/13 11:07:01;;;;;;;1.17;0.40;;;20.50;68.80;;;;;;5053064;28;20909;-60
2021/11/13 11:09:46;;;;;;;1.13;0.70;;;20.40;68.90;;;;;;5052473;28;20029;-57
2021/11/13 11:12:19;;;;;;;0.65;0.45;;;20.40;68.90;;;;;;5052637;28;20177;-58
2021/11/13 11:14:53;;;;;;;1.05;0.63;;;20.40;69.90;;;;;;5052658;28;20120;-58
2021/11/13 11:17:26;;;;;;;0.68;0.40;;;20.40;69.30;;;;;;5052794;28;20104;-60
2021/11/13 11:19:56;;;;;;;0.63;0.60;;;20.30;69.40;;;;;;5052404;28;20033;-57
2021/11/13 11:22:27;;;;;;;4.00;0.75;;;20.30;69.60;;;;;;5052425;28;20025;-56
2021/11/13 11:25:00;;;;;;;0.88;0.60;;;20.30;69.60;;;;;;5052495;28;20029;-55
2021/11/13 11:27:47;;;;;;;3.15;1.02;;;20.30;69.70;;;;;;5052045;28;20024;-56
2021/11/13 11:30:16;;;;;;;1.65;0.40;;;20.30;69.80;;;;;;5052619;28;20021;-56
2021/11/13 11:32:46;;;;;;;2.15;0.50;;;20.30;69.90;;;;;;5052254;28;20028;-54
2021/11/13 11:35:22;;;;;;;5.05;0.50;;;20.20;69.90;;;;;;5052761;28;20021;-54
2021/11/13 11:38:17;;;;;;;2.10;0.90;;;20.30;70.00;;;;;;5052549;28;20017;-57
2021/11/13 11:40:48;;;;;;;3.00;0.40;;;20.20;70.10;;;;;;5050589;28;20111;-58
2021/11/13 11:43:16;;;;;;;0.50;0.40;;;20.20;71.00;;;;;;5051017;28;20032;-56
2021/11/13 11:45:45;;;;;;;5.63;0.75;;;20.20;70.80;;;;;;5052518;28;20025;-52
2021/11/13 11:48:17;;;;;;;1.60;0.73;;;20.20;71.00;;;;;;5052547;28;20387;-55
2021/11/13 11:50:48;;;;;;;1.05;0.47;;;20.20;71.10;;;;;;5052365;28;20032;-57
2021/11/13 11:53:16;;;;;;;2.55;0.30;;;20.20;71.10;;;;;;5052171;28;20314;-51
2021/11/13 11:55:49;;;;;;;3.70;0.68;;;20.20;71.30;;;;;;5052457;28;20032;-60
2021/11/13 11:58:21;;;;;;;0.70;0.57;;;20.20;71.30;;;;;;5051231;28;20459;-59
2021/11/13 12:00:50;;;;;;;1.05;0.30;;;20.20;71.20;;;;;;5052533;28;20041;-59
2021/11/13 12:03:24;;;;;;;1.13;0.45;;;20.10;71.00;;;;;;5052394;28;20498;-58
2021/11/13 12:05:55;;;;;;;0.38;0.30;;;20.10;71.00;;;;;;5051840;28;20029;-58
2021/11/13 12:08:27;;;;;;;0.90;0.50;;;20.10;71.60;;;;;;5052263;28;20025;-48
2021/11/13 12:11:16;;;;;;;1.05;0.40;;;20.10;70.90;;;;;;5052642;28;20078;-57
2021/11/13 12:13:43;;;;;;;0.50;0.50;;;20.10;71.00;;;;;;5051999;28;20053;-58
2021/11/13 12:16:26;;;;;;;0.40;0.40;;;20.10;71.00;;;;;;5052157;28;20017;-56
2021/11/13 12:18:56;;;;;;;0.52;0.30;;;20.10;71.00;;;;;;5052328;28;20051;-53
2021/11/13 12:21:30;;;;;;;1.48;0.40;;;20.10;71.00;;;;;;5050771;28;20025;-56
2021/11/13 12:24:06;;;;;;;0.85;0.50;;;20.10;71.10;;;;;;5052071;28;20025;-57
2021/11/13 12:26:34;;;;;;;0.30;0.30;;;20.10;71.00;;;;;;5051965;28;20021;-58
2021/11/13 12:29:04;;;;;;;0.30;0.30;;;20.10;70.90;;;;;;5051881;28;20029;-57
2021/11/13 12:31:44;;;;;;;2.40;0.60;;;20.10;70.90;;;;;;5052120;28;20033;-53
2021/11/13 12:34:16;;;;;;;0.82;0.30;;;20.00;70.60;;;;;;5051806;28;20105;-56
2021/11/13 12:37:02;;;;;;;0.47;0.30;;;20.10;70.60;;;;;;5051731;28;20043;-60
2021/11/13 12:39:33;;;;;;;3.13;0.40;;;20.10;70.60;;;;;;5051877;28;20036;-55
2021/11/13 12:42:04;;;;;;;0.50;0.40;;;20.10;70.60;;;;;;5052040;28;20054;-53
2021/11/13 12:44:40;;;;;;;0.43;0.32;;;20.00;70.40;;;;;;5051559;28;20053;-59
2021/11/13 12:47:17;;;;;;;0.80;0.30;;;20.00;70.60;;;;;;5051862;28;20398;-57
2021/11/13 12:49:47;;;;;;;0.40;0.35;;;20.00;70.60;;;;;;5051671;28;20498;-58
2021/11/13 12:52:19;;;;;;;0.47;0.32;;;20.00;70.50;;;;;;5051648;28;20047;-55
2021/11/13 12:54:52;;;;;;;0.75;0.25;;;20.00;70.60;;;;;;5050182;28;20064;-58
2021/11/13 12:57:32;;;;;;;0.35;0.22;;;20.00;70.60;;;;;;5051846;28;20023;-54